sensor_id;sensor_type;location;lat;lon;timestamp;temperature;humidity
64468;DHT22;50853;46.836;16.820;2022-10-15T00:01:47;11.10;94.20
64468;DHT22;50853;46.836;16.820;2022-10-15T00:04:13;11.20;96.20
64468;DHT22;50853;46.836;16.820;2022-10-15T00:06:38;11.30;96.50
64468;DHT22;50853;46.836;16.820;2022-10-15T00:09:04;11.30;96.50
64468;DHT22;50853;46.836;16.820;2022-10-15T00:11:30;11.30;96.60
64468;DHT22;50853;46.836;16.820;2022-10-15T00:13:58;11.30;97.50
64468;DHT22;50853;46.836;16.820;2022-10-15T00:16:26;11.40;98.10
64468;DHT22;50853;46.836;16.820;2022-10-15T00:18:57;11.40;97.00
64468;DHT22;50853;46.836;16.820;2022-10-15T00:21:24;11.30;96.90
64468;DHT22;50853;46.836;16.820;2022-10-15T00:23:50;11.30;97.30
64468;DHT22;50853;46.836;16.820;2022-10-15T00:26:19;11.30;97.00
64468;DHT22;50853;46.836;16.820;2022-10-15T00:28:46;11.20;96.00
64468;DHT22;50853;46.836;16.820;2022-10-15T00:31:16;11.20;95.80
64468;DHT22;50853;46.836;16.820;2022-10-15T00:33:43;11.10;96.30
64468;DHT22;50853;46.836;16.820;2022-10-15T00:36:17;11.10;96.60
64468;DHT22;50853;46.836;16.820;2022-10-15T00:38:43;11.10;96.30
64468;DHT22;50853;46.836;16.820;2022-10-15T00:41:18;11.10;96.80
64468;DHT22;50853;46.836;16.820;2022-10-15T00:43:46;11.10;97.20
64468;DHT22;50853;46.836;16.820;2022-10-15T00:52:07;11.00;96.50
64468;DHT22;50853;46.836;16.820;2022-10-15T00:54:39;10.90;97.30
64468;DHT22;50853;46.836;16.820;2022-10-15T00:57:07;10.90;97.20
64468;DHT22;50853;46.836;16.820;2022-10-15T00:59:38;10.90;97.60
64468;DHT22;50853;46.836;16.820;2022-10-15T01:02:07;10.90;97.90
64468;DHT22;50853;46.836;16.820;2022-10-15T01:04:33;10.90;97.90
64468;DHT22;50853;46.836;16.820;2022-10-15T01:07:00;10.90;97.20
64468;DHT22;50853;46.836;16.820;2022-10-15T01:09:26;10.80;97.00
64468;DHT22;50853;46.836;16.820;2022-10-15T01:11:54;10.80;97.70
64468;DHT22;50853;46.836;16.820;2022-10-15T01:17:20;10.80;97.00
64468;DHT22;50853;46.836;16.820;2022-10-15T01:31:32;10.70;97.60
64468;DHT22;50853;46.836;16.820;2022-10-15T01:34:13;10.70;97.80
64468;DHT22;50853;46.836;16.820;2022-10-15T01:37:06;10.70;97.90
64468;DHT22;50853;46.836;16.820;2022-10-15T01:39:40;10.60;97.60
64468;DHT22;50853;46.836;16.820;2022-10-15T01:42:14;10.50;96.10
64468;DHT22;50853;46.836;16.820;2022-10-15T01:44:56;10.30;95.30
64468;DHT22;50853;46.836;16.820;2022-10-15T01:50:12;10.40;97.60
64468;DHT22;50853;46.836;16.820;2022-10-15T01:52:40;10.50;98.80
64468;DHT22;50853;46.836;16.820;2022-10-15T01:55:10;10.50;99.30
64468;DHT22;50853;46.836;16.820;2022-10-15T01:57:39;10.60;99.70
64468;DHT22;50853;46.836;16.820;2022-10-15T02:00:06;10.60;99.60
64468;DHT22;50853;46.836;16.820;2022-10-15T02:02:33;10.60;99.70
64468;DHT22;50853;46.836;16.820;2022-10-15T02:04:59;10.60;99.90
64468;DHT22;50853;46.836;16.820;2022-10-15T02:15:50;10.50;99.00
64468;DHT22;50853;46.836;16.820;2022-10-15T02:26:28;10.50;99.90
64468;DHT22;50853;46.836;16.820;2022-10-15T02:28:57;10.50;99.90
64468;DHT22;50853;46.836;16.820;2022-10-15T02:31:26;10.50;99.90
64468;DHT22;50853;46.836;16.820;2022-10-15T02:33:58;10.60;99.90
64468;DHT22;50853;46.836;16.820;2022-10-15T02:36:26;10.60;99.90
64468;DHT22;50853;46.836;16.820;2022-10-15T02:38:54;10.70;99.90
64468;DHT22;50853;46.836;16.820;2022-10-15T02:41:22;10.80;99.90
64468;DHT22;50853;46.836;16.820;2022-10-15T02:43:48;10.80;99.90
64468;DHT22;50853;46.836;16.820;2022-10-15T02:46:15;10.70;99.90
64468;DHT22;50853;46.836;16.820;2022-10-15T02:48:42;10.70;99.90
64468;DHT22;50853;46.836;16.820;2022-10-15T02:51:07;10.70;99.90
64468;DHT22;50853;46.836;16.820;2022-10-15T02:53:34;10.60;99.90
64468;DHT22;50853;46.836;16.820;2022-10-15T02:55:59;10.70;99.90
64468;DHT22;50853;46.836;16.820;2022-10-15T02:58:25;10.60;99.90
64468;DHT22;50853;46.836;16.820;2022-10-15T03:00:54;10.60;99.90
64468;DHT22;50853;46.836;16.820;2022-10-15T03:03:20;10.60;99.90
64468;DHT22;50853;46.836;16.820;2022-10-15T03:05:45;10.50;99.50
64468;DHT22;50853;46.836;16.820;2022-10-15T03:08:11;10.50;99.30
64468;DHT22;50853;46.836;16.820;2022-10-15T03:10:37;10.40;98.60
64468;DHT22;50853;46.836;16.820;2022-10-15T03:13:03;10.40;98.90
64468;DHT22;50853;46.836;16.820;2022-10-15T03:15:30;10.30;98.80
64468;DHT22;50853;46.836;16.820;2022-10-15T03:17:56;10.40;98.80
64468;DHT22;50853;46.836;16.820;2022-10-15T03:20:22;10.30;99.10
64468;DHT22;50853;46.836;16.820;2022-10-15T03:22:47;10.30;99.10
64468;DHT22;50853;46.836;16.820;2022-10-15T03:25:13;10.20;98.90
64468;DHT22;50853;46.836;16.820;2022-10-15T03:27:39;10.20;99.20
64468;DHT22;50853;46.836;16.820;2022-10-15T03:30:06;10.20;99.40
64468;DHT22;50853;46.836;16.820;2022-10-15T03:32:32;10.20;99.90
64468;DHT22;50853;46.836;16.820;2022-10-15T03:34:58;10.20;99.90
64468;DHT22;50853;46.836;16.820;2022-10-15T03:37:24;10.30;99.90
64468;DHT22;50853;46.836;16.820;2022-10-15T03:39:50;10.20;99.90
64468;DHT22;50853;46.836;16.820;2022-10-15T03:42:15;10.20;99.90
64468;DHT22;50853;46.836;16.820;2022-10-15T03:44:41;10.20;99.90
64468;DHT22;50853;46.836;16.820;2022-10-15T03:47:07;10.20;99.90
64468;DHT22;50853;46.836;16.820;2022-10-15T03:49:33;10.20;99.90
64468;DHT22;50853;46.836;16.820;2022-10-15T03:51:59;10.20;99.90
64468;DHT22;50853;46.836;16.820;2022-10-15T03:54:25;10.10;99.90
64468;DHT22;50853;46.836;16.820;2022-10-15T03:56:51;10.10;99.90
64468;DHT22;50853;46.836;16.820;2022-10-15T03:59:17;10.10;99.90
64468;DHT22;50853;46.836;16.820;2022-10-15T04:01:43;10.20;99.90
64468;DHT22;50853;46.836;16.820;2022-10-15T04:04:10;10.10;99.90
64468;DHT22;50853;46.836;16.820;2022-10-15T04:06:37;10.20;99.90
64468;DHT22;50853;46.836;16.820;2022-10-15T04:09:03;10.10;99.90
64468;DHT22;50853;46.836;16.820;2022-10-15T04:11:29;10.10;99.90
64468;DHT22;50853;46.836;16.820;2022-10-15T04:13:55;10.10;99.90
64468;DHT22;50853;46.836;16.820;2022-10-15T04:16:21;10.10;99.90
64468;DHT22;50853;46.836;16.820;2022-10-15T04:18:47;10.10;99.90
64468;DHT22;50853;46.836;16.820;2022-10-15T04:21:12;10.10;99.90
64468;DHT22;50853;46.836;16.820;2022-10-15T04:23:38;10.20;99.90
64468;DHT22;50853;46.836;16.820;2022-10-15T04:26:04;10.20;99.90
64468;DHT22;50853;46.836;16.820;2022-10-15T04:28:31;10.20;99.90
64468;DHT22;50853;46.836;16.820;2022-10-15T04:30:58;10.20;99.90
64468;DHT22;50853;46.836;16.820;2022-10-15T04:33:25;10.20;99.90
64468;DHT22;50853;46.836;16.820;2022-10-15T04:38:28;10.20;99.90
64468;DHT22;50853;46.836;16.820;2022-10-15T04:41:12;10.20;99.90
64468;DHT22;50853;46.836;16.820;2022-10-15T04:43:38;10.20;99.90
64468;DHT22;50853;46.836;16.820;2022-10-15T04:46:06;10.10;99.90
64468;DHT22;50853;46.836;16.820;2022-10-15T04:48:34;10.10;99.90
64468;DHT22;50853;46.836;16.820;2022-10-15T04:53:31;10.10;99.90
64468;DHT22;50853;46.836;16.820;2022-10-15T04:56:06;10.10;99.90
64468;DHT22;50853;46.836;16.820;2022-10-15T04:58:34;10.20;99.90
64468;DHT22;50853;46.836;16.820;2022-10-15T05:01:03;10.20;99.90
64468;DHT22;50853;46.836;16.820;2022-10-15T05:03:30;10.30;99.90
64468;DHT22;50853;46.836;16.820;2022-10-15T05:06:16;10.30;99.90
64468;DHT22;50853;46.836;16.820;2022-10-15T05:08:43;10.40;99.90
64468;DHT22;50853;46.836;16.820;2022-10-15T05:11:18;10.40;99.90
64468;DHT22;50853;46.836;16.820;2022-10-15T05:13:45;10.40;99.90
64468;DHT22;50853;46.836;16.820;2022-10-15T05:16:16;10.40;99.90
64468;DHT22;50853;46.836;16.820;2022-10-15T05:18:44;10.30;99.90
64468;DHT22;50853;46.836;16.820;2022-10-15T05:21:11;10.30;99.90
64468;DHT22;50853;46.836;16.820;2022-10-15T05:23:38;10.30;99.90
64468;DHT22;50853;46.836;16.820;2022-10-15T05:26:06;10.30;99.90
64468;DHT22;50853;46.836;16.820;2022-10-15T05:28:32;10.30;99.90
64468;DHT22;50853;46.836;16.820;2022-10-15T05:31:13;10.30;99.90
64468;DHT22;50853;46.836;16.820;2022-10-15T05:33:40;10.30;99.90
64468;DHT22;50853;46.836;16.820;2022-10-15T05:38:34;10.30;99.90
64468;DHT22;50853;46.836;16.820;2022-10-15T05:41:00;10.40;99.90
64468;DHT22;50853;46.836;16.820;2022-10-15T05:43:25;10.40;99.90
64468;DHT22;50853;46.836;16.820;2022-10-15T05:45:55;10.40;99.90
64468;DHT22;50853;46.836;16.820;2022-10-15T05:48:20;10.40;99.90
64468;DHT22;50853;46.836;16.820;2022-10-15T05:50:46;10.40;99.90
64468;DHT22;50853;46.836;16.820;2022-10-15T05:53:12;10.40;99.90
64468;DHT22;50853;46.836;16.820;2022-10-15T05:55:38;10.50;99.90
64468;DHT22;50853;46.836;16.820;2022-10-15T05:58:04;10.50;99.90
64468;DHT22;50853;46.836;16.820;2022-10-15T06:00:30;10.50;99.90
64468;DHT22;50853;46.836;16.820;2022-10-15T06:02:56;10.50;99.90
64468;DHT22;50853;46.836;16.820;2022-10-15T06:05:22;10.50;99.90
64468;DHT22;50853;46.836;16.820;2022-10-15T06:07:48;10.50;99.90
64468;DHT22;50853;46.836;16.820;2022-10-15T06:10:13;10.50;99.90
64468;DHT22;50853;46.836;16.820;2022-10-15T06:12:39;10.50;99.90
64468;DHT22;50853;46.836;16.820;2022-10-15T06:15:05;10.50;99.90
64468;DHT22;50853;46.836;16.820;2022-10-15T06:17:31;10.60;99.90
64468;DHT22;50853;46.836;16.820;2022-10-15T06:19:57;10.60;99.90
64468;DHT22;50853;46.836;16.820;2022-10-15T06:22:23;10.70;99.90
64468;DHT22;50853;46.836;16.820;2022-10-15T06:24:49;10.80;99.90
64468;DHT22;50853;46.836;16.820;2022-10-15T06:27:14;10.80;99.90
64468;DHT22;50853;46.836;16.820;2022-10-15T06:29:40;10.90;99.90
64468;DHT22;50853;46.836;16.820;2022-10-15T06:32:10;10.90;99.90
64468;DHT22;50853;46.836;16.820;2022-10-15T06:34:36;10.90;99.90
64468;DHT22;50853;46.836;16.820;2022-10-15T06:37:02;10.90;99.90
64468;DHT22;50853;46.836;16.820;2022-10-15T06:39:28;10.90;99.90
64468;DHT22;50853;46.836;16.820;2022-10-15T06:41:53;10.90;99.90
64468;DHT22;50853;46.836;16.820;2022-10-15T06:44:19;10.90;99.90
64468;DHT22;50853;46.836;16.820;2022-10-15T06:46:45;11.00;99.90
64468;DHT22;50853;46.836;16.820;2022-10-15T06:49:11;11.00;99.90
64468;DHT22;50853;46.836;16.820;2022-10-15T06:51:37;11.00;99.90
64468;DHT22;50853;46.836;16.820;2022-10-15T06:54:03;11.00;99.90
64468;DHT22;50853;46.836;16.820;2022-10-15T06:56:29;11.00;99.90
64468;DHT22;50853;46.836;16.820;2022-10-15T06:58:55;11.10;99.90
64468;DHT22;50853;46.836;16.820;2022-10-15T07:01:21;11.00;99.90
64468;DHT22;50853;46.836;16.820;2022-10-15T07:03:50;11.10;99.90
64468;DHT22;50853;46.836;16.820;2022-10-15T07:06:16;11.20;99.90
64468;DHT22;50853;46.836;16.820;2022-10-15T07:08:42;11.20;99.90
64468;DHT22;50853;46.836;16.820;2022-10-15T07:11:09;11.20;99.90
64468;DHT22;50853;46.836;16.820;2022-10-15T07:13:36;11.30;99.90
64468;DHT22;50853;46.836;16.820;2022-10-15T07:16:09;11.20;99.90
64468;DHT22;50853;46.836;16.820;2022-10-15T07:18:35;11.40;99.90
64468;DHT22;50853;46.836;16.820;2022-10-15T07:21:03;11.40;99.90
64468;DHT22;50853;46.836;16.820;2022-10-15T07:23:29;11.50;99.90
64468;DHT22;50853;46.836;16.820;2022-10-15T07:25:59;11.60;99.90
64468;DHT22;50853;46.836;16.820;2022-10-15T07:28:25;11.70;99.90
64468;DHT22;50853;46.836;16.820;2022-10-15T07:30:52;11.90;99.90
64468;DHT22;50853;46.836;16.820;2022-10-15T07:33:18;12.10;99.90
64468;DHT22;50853;46.836;16.820;2022-10-15T07:35:43;12.20;99.40
64468;DHT22;50853;46.836;16.820;2022-10-15T07:38:09;12.30;98.70
64468;DHT22;50853;46.836;16.820;2022-10-15T07:40:35;12.40;98.70
64468;DHT22;50853;46.836;16.820;2022-10-15T07:43:01;12.40;97.10
64468;DHT22;50853;46.836;16.820;2022-10-15T07:45:27;12.50;98.60
64468;DHT22;50853;46.836;16.820;2022-10-15T07:47:53;12.60;96.90
64468;DHT22;50853;46.836;16.820;2022-10-15T07:50:19;12.60;96.80
64468;DHT22;50853;46.836;16.820;2022-10-15T07:52:46;12.70;96.10
64468;DHT22;50853;46.836;16.820;2022-10-15T07:55:12;12.70;96.40
64468;DHT22;50853;46.836;16.820;2022-10-15T07:57:38;12.90;97.30
64468;DHT22;50853;46.836;16.820;2022-10-15T08:00:05;13.10;97.00
64468;DHT22;50853;46.836;16.820;2022-10-15T08:02:31;13.20;96.00
64468;DHT22;50853;46.836;16.820;2022-10-15T08:04:57;13.30;94.20
64468;DHT22;50853;46.836;16.820;2022-10-15T08:07:22;13.60;94.80
64468;DHT22;50853;46.836;16.820;2022-10-15T08:09:48;13.70;95.20
64468;DHT22;50853;46.836;16.820;2022-10-15T08:12:14;13.80;92.80
64468;DHT22;50853;46.836;16.820;2022-10-15T08:14:40;13.90;93.70
64468;DHT22;50853;46.836;16.820;2022-10-15T08:17:06;13.90;91.20
64468;DHT22;50853;46.836;16.820;2022-10-15T08:19:32;14.00;93.30
64468;DHT22;50853;46.836;16.820;2022-10-15T08:21:57;14.10;93.00
64468;DHT22;50853;46.836;16.820;2022-10-15T08:24:24;14.20;90.50
64468;DHT22;50853;46.836;16.820;2022-10-15T08:26:49;14.30;92.10
64468;DHT22;50853;46.836;16.820;2022-10-15T08:29:15;14.50;92.40
64468;DHT22;50853;46.836;16.820;2022-10-15T08:31:41;14.60;91.30
64468;DHT22;50853;46.836;16.820;2022-10-15T08:34:07;14.70;89.50
64468;DHT22;50853;46.836;16.820;2022-10-15T08:36:33;14.70;90.10
64468;DHT22;50853;46.836;16.820;2022-10-15T08:38:59;14.70;88.70
64468;DHT22;50853;46.836;16.820;2022-10-15T08:41:36;14.60;87.50
64468;DHT22;50853;46.836;16.820;2022-10-15T08:44:02;14.60;88.50
64468;DHT22;50853;46.836;16.820;2022-10-15T08:46:45;14.70;87.00
64468;DHT22;50853;46.836;16.820;2022-10-15T08:54:50;15.20;86.00
64468;DHT22;50853;46.836;16.820;2022-10-15T09:00:21;15.20;83.50
64468;DHT22;50853;46.836;16.820;2022-10-15T09:03:19;15.30;86.00
64468;DHT22;50853;46.836;16.820;2022-10-15T09:11:18;15.20;85.90
64468;DHT22;50853;46.836;16.820;2022-10-15T09:13:47;15.20;88.00
64468;DHT22;50853;46.836;16.820;2022-10-15T09:18:42;15.40;84.80
64468;DHT22;50853;46.836;16.820;2022-10-15T09:21:10;15.50;85.90
64468;DHT22;50853;46.836;16.820;2022-10-15T09:23:37;15.40;85.10
64468;DHT22;50853;46.836;16.820;2022-10-15T09:26:15;15.40;84.20
64468;DHT22;50853;46.836;16.820;2022-10-15T09:32:38;15.60;85.20
64468;DHT22;50853;46.836;16.820;2022-10-15T09:34:55;15.60;85.70
64468;DHT22;50853;46.836;16.820;2022-10-15T09:42:56;15.90;83.80
64468;DHT22;50853;46.836;16.820;2022-10-15T09:45:23;15.90;83.30
64468;DHT22;50853;46.836;16.820;2022-10-15T09:47:49;15.90;82.80
64468;DHT22;50853;46.836;16.820;2022-10-15T09:50:16;15.90;82.90
64468;DHT22;50853;46.836;16.820;2022-10-15T09:53:34;15.90;83.30
64468;DHT22;50853;46.836;16.820;2022-10-15T09:58:58;15.80;81.40
64468;DHT22;50853;46.836;16.820;2022-10-15T10:01:29;15.90;81.10
64468;DHT22;50853;46.836;16.820;2022-10-15T10:04:17;15.90;81.20
64468;DHT22;50853;46.836;16.820;2022-10-15T10:06:54;16.00;82.30
64468;DHT22;50853;46.836;16.820;2022-10-15T10:09:51;16.10;81.70
64468;DHT22;50853;46.836;16.820;2022-10-15T10:12:22;16.10;84.00
64468;DHT22;50853;46.836;16.820;2022-10-15T10:16:02;16.00;80.40
64468;DHT22;50853;46.836;16.820;2022-10-15T10:18:22;16.10;82.10
64468;DHT22;50853;46.836;16.820;2022-10-15T10:21:00;16.00;82.60
64468;DHT22;50853;46.836;16.820;2022-10-15T10:23:32;16.10;82.90
64468;DHT22;50853;46.836;16.820;2022-10-15T10:26:02;16.00;82.30
64468;DHT22;50853;46.836;16.820;2022-10-15T10:31:13;16.10;81.90
64468;DHT22;50853;46.836;16.820;2022-10-15T10:36:06;16.10;81.90
64468;DHT22;50853;46.836;16.820;2022-10-15T10:38:35;16.20;82.80
64468;DHT22;50853;46.836;16.820;2022-10-15T10:41:07;16.10;80.60
64468;DHT22;50853;46.836;16.820;2022-10-15T10:43:40;16.00;81.70
64468;DHT22;50853;46.836;16.820;2022-10-15T10:46:19;16.10;85.10
64468;DHT22;50853;46.836;16.820;2022-10-15T10:48:51;16.20;82.30
64468;DHT22;50853;46.836;16.820;2022-10-15T10:51:19;16.30;84.10
64468;DHT22;50853;46.836;16.820;2022-10-15T10:53:58;16.30;82.10
64468;DHT22;50853;46.836;16.820;2022-10-15T10:56:38;16.30;81.20
64468;DHT22;50853;46.836;16.820;2022-10-15T11:01:49;16.50;81.50
64468;DHT22;50853;46.836;16.820;2022-10-15T11:04:35;16.60;80.00
64468;DHT22;50853;46.836;16.820;2022-10-15T11:09:56;16.80;82.30
64468;DHT22;50853;46.836;16.820;2022-10-15T11:15:24;16.70;78.60
64468;DHT22;50853;46.836;16.820;2022-10-15T11:39:24;16.90;78.90
64468;DHT22;50853;46.836;16.820;2022-10-15T11:42:07;16.90;78.40
64468;DHT22;50853;46.836;16.820;2022-10-15T11:44:47;16.90;77.70
64468;DHT22;50853;46.836;16.820;2022-10-15T11:47:44;16.80;78.10
64468;DHT22;50853;46.836;16.820;2022-10-15T11:50:15;16.80;76.70
64468;DHT22;50853;46.836;16.820;2022-10-15T11:58:33;16.90;78.30
64468;DHT22;50853;46.836;16.820;2022-10-15T12:01:05;16.80;79.40
64468;DHT22;50853;46.836;16.820;2022-10-15T12:03:39;16.80;78.80
64468;DHT22;50853;46.836;16.820;2022-10-15T12:06:12;16.90;81.10
64468;DHT22;50853;46.836;16.820;2022-10-15T12:08:40;16.90;79.10
64468;DHT22;50853;46.836;16.820;2022-10-15T12:14:16;16.80;77.60
64468;DHT22;50853;46.836;16.820;2022-10-15T12:19:40;16.80;77.30
64468;DHT22;50853;46.836;16.820;2022-10-15T12:22:09;16.80;76.50
64468;DHT22;50853;46.836;16.820;2022-10-15T12:27:25;16.60;77.90
64468;DHT22;50853;46.836;16.820;2022-10-15T12:30:11;16.50;75.00
64468;DHT22;50853;46.836;16.820;2022-10-15T12:32:39;16.50;75.40
64468;DHT22;50853;46.836;16.820;2022-10-15T12:35:29;16.50;75.30
64468;DHT22;50853;46.836;16.820;2022-10-15T12:41:02;16.50;75.40
64468;DHT22;50853;46.836;16.820;2022-10-15T12:43:30;16.50;76.50
64468;DHT22;50853;46.836;16.820;2022-10-15T12:46:02;16.50;75.40
64468;DHT22;50853;46.836;16.820;2022-10-15T12:53:45;16.60;76.30
64468;DHT22;50853;46.836;16.820;2022-10-15T13:03:40;16.80;75.70
64468;DHT22;50853;46.836;16.820;2022-10-15T13:06:13;16.80;75.90
64468;DHT22;50853;46.836;16.820;2022-10-15T13:08:44;16.90;75.10
64468;DHT22;50853;46.836;16.820;2022-10-15T13:11:30;16.90;75.70
64468;DHT22;50853;46.836;16.820;2022-10-15T13:14:08;17.00;76.60
64468;DHT22;50853;46.836;16.820;2022-10-15T13:16:46;17.10;76.60
64468;DHT22;50853;46.836;16.820;2022-10-15T13:19:22;17.00;76.80
64468;DHT22;50853;46.836;16.820;2022-10-15T13:21:52;17.00;75.70
64468;DHT22;50853;46.836;16.820;2022-10-15T13:24:21;17.10;76.20
64468;DHT22;50853;46.836;16.820;2022-10-15T13:26:48;17.10;76.60
64468;DHT22;50853;46.836;16.820;2022-10-15T13:29:23;17.00;76.30
64468;DHT22;50853;46.836;16.820;2022-10-15T13:31:50;17.00;76.60
64468;DHT22;50853;46.836;16.820;2022-10-15T13:34:34;17.10;77.60
64468;DHT22;50853;46.836;16.820;2022-10-15T13:37:02;17.00;76.80
64468;DHT22;50853;46.836;16.820;2022-10-15T13:39:40;17.10;77.10
64468;DHT22;50853;46.836;16.820;2022-10-15T13:44:35;17.20;77.20
64468;DHT22;50853;46.836;16.820;2022-10-15T13:47:01;17.30;78.20
64468;DHT22;50853;46.836;16.820;2022-10-15T13:49:28;17.30;77.60
64468;DHT22;50853;46.836;16.820;2022-10-15T13:51:56;17.30;76.00
64468;DHT22;50853;46.836;16.820;2022-10-15T13:54:26;17.30;76.70
64468;DHT22;50853;46.836;16.820;2022-10-15T13:56:55;17.30;75.60
64468;DHT22;50853;46.836;16.820;2022-10-15T13:59:24;17.30;75.50
64468;DHT22;50853;46.836;16.820;2022-10-15T14:01:53;17.20;75.10
64468;DHT22;50853;46.836;16.820;2022-10-15T14:04:29;17.20;74.90
64468;DHT22;50853;46.836;16.820;2022-10-15T14:07:01;17.20;74.70
64468;DHT22;50853;46.836;16.820;2022-10-15T14:09:31;17.20;74.40
64468;DHT22;50853;46.836;16.820;2022-10-15T14:11:58;17.10;74.60
64468;DHT22;50853;46.836;16.820;2022-10-15T14:14:47;17.10;74.80
64468;DHT22;50853;46.836;16.820;2022-10-15T14:17:22;17.10;74.40
64468;DHT22;50853;46.836;16.820;2022-10-15T14:19:55;17.10;75.20
64468;DHT22;50853;46.836;16.820;2022-10-15T14:22:23;17.10;74.90
64468;DHT22;50853;46.836;16.820;2022-10-15T14:24:52;17.00;74.60
64468;DHT22;50853;46.836;16.820;2022-10-15T14:27:26;17.10;75.30
64468;DHT22;50853;46.836;16.820;2022-10-15T14:29:58;17.00;74.90
64468;DHT22;50853;46.836;16.820;2022-10-15T14:32:27;17.10;75.00
64468;DHT22;50853;46.836;16.820;2022-10-15T14:34:58;17.00;75.10
64468;DHT22;50853;46.836;16.820;2022-10-15T14:40:12;17.00;75.30
64468;DHT22;50853;46.836;16.820;2022-10-15T14:42:40;17.00;76.00
64468;DHT22;50853;46.836;16.820;2022-10-15T14:45:20;17.00;76.50
64468;DHT22;50853;46.836;16.820;2022-10-15T14:47:53;17.00;76.70
64468;DHT22;50853;46.836;16.820;2022-10-15T14:50:26;17.00;76.10
64468;DHT22;50853;46.836;16.820;2022-10-15T14:52:54;17.00;76.40
64468;DHT22;50853;46.836;16.820;2022-10-15T14:58:10;16.90;76.80
64468;DHT22;50853;46.836;16.820;2022-10-15T15:00:42;17.00;76.60
64468;DHT22;50853;46.836;16.820;2022-10-15T15:03:17;17.00;76.70
64468;DHT22;50853;46.836;16.820;2022-10-15T15:05:51;17.00;76.80
64468;DHT22;50853;46.836;16.820;2022-10-15T15:08:20;16.90;77.00
64468;DHT22;50853;46.836;16.820;2022-10-15T15:10:47;16.90;77.40
64468;DHT22;50853;46.836;16.820;2022-10-15T15:13:21;16.90;78.20
64468;DHT22;50853;46.836;16.820;2022-10-15T15:15:48;16.80;78.60
64468;DHT22;50853;46.836;16.820;2022-10-15T15:18:14;16.80;78.50
64468;DHT22;50853;46.836;16.820;2022-10-15T15:20:41;16.70;78.80
64468;DHT22;50853;46.836;16.820;2022-10-15T15:23:15;16.70;78.20
64468;DHT22;50853;46.836;16.820;2022-10-15T15:25:42;16.70;79.70
64468;DHT22;50853;46.836;16.820;2022-10-15T15:28:20;16.60;78.70
64468;DHT22;50853;46.836;16.820;2022-10-15T15:30:57;16.50;78.90
64468;DHT22;50853;46.836;16.820;2022-10-15T15:33:23;16.50;79.00
64468;DHT22;50853;46.836;16.820;2022-10-15T15:35:52;16.50;79.30
64468;DHT22;50853;46.836;16.820;2022-10-15T15:38:23;16.50;79.10
64468;DHT22;50853;46.836;16.820;2022-10-15T15:40:49;16.40;78.90
64468;DHT22;50853;46.836;16.820;2022-10-15T15:43:17;16.40;79.40
64468;DHT22;50853;46.836;16.820;2022-10-15T15:45:44;16.30;79.30
64468;DHT22;50853;46.836;16.820;2022-10-15T15:48:11;16.30;79.40
64468;DHT22;50853;46.836;16.820;2022-10-15T15:50:36;16.30;79.10
64468;DHT22;50853;46.836;16.820;2022-10-15T15:53:03;16.30;79.50
64468;DHT22;50853;46.836;16.820;2022-10-15T15:55:29;16.20;79.60
64468;DHT22;50853;46.836;16.820;2022-10-15T15:57:55;16.20;79.90
64468;DHT22;50853;46.836;16.820;2022-10-15T16:00:20;16.20;80.20
64468;DHT22;50853;46.836;16.820;2022-10-15T16:02:46;16.10;80.30
64468;DHT22;50853;46.836;16.820;2022-10-15T16:05:15;16.10;80.30
64468;DHT22;50853;46.836;16.820;2022-10-15T16:07:44;16.10;80.30
64468;DHT22;50853;46.836;16.820;2022-10-15T16:10:10;16.00;80.50
64468;DHT22;50853;46.836;16.820;2022-10-15T16:12:40;16.00;80.90
64468;DHT22;50853;46.836;16.820;2022-10-15T16:15:07;16.00;80.90
64468;DHT22;50853;46.836;16.820;2022-10-15T16:17:34;15.90;81.40
64468;DHT22;50853;46.836;16.820;2022-10-15T16:20:00;15.90;81.50
64468;DHT22;50853;46.836;16.820;2022-10-15T16:22:25;15.90;81.30
64468;DHT22;50853;46.836;16.820;2022-10-15T16:24:51;15.90;81.40
64468;DHT22;50853;46.836;16.820;2022-10-15T16:27:18;15.90;81.40
64468;DHT22;50853;46.836;16.820;2022-10-15T16:29:44;15.90;81.60
64468;DHT22;50853;46.836;16.820;2022-10-15T16:32:10;15.80;81.20
64468;DHT22;50853;46.836;16.820;2022-10-15T16:34:36;15.80;81.80
64468;DHT22;50853;46.836;16.820;2022-10-15T16:37:03;15.80;81.80
64468;DHT22;50853;46.836;16.820;2022-10-15T16:39:32;15.80;81.70
64468;DHT22;50853;46.836;16.820;2022-10-15T16:41:58;15.70;81.70
64468;DHT22;50853;46.836;16.820;2022-10-15T16:44:24;15.70;81.80
64468;DHT22;50853;46.836;16.820;2022-10-15T16:46:50;15.70;82.00
64468;DHT22;50853;46.836;16.820;2022-10-15T16:49:16;15.60;81.70
64468;DHT22;50853;46.836;16.820;2022-10-15T16:51:41;15.60;82.10
64468;DHT22;50853;46.836;16.820;2022-10-15T16:54:11;15.60;83.10
64468;DHT22;50853;46.836;16.820;2022-10-15T16:56:37;15.60;82.70
64468;DHT22;50853;46.836;16.820;2022-10-15T16:59:03;15.60;83.00
64468;DHT22;50853;46.836;16.820;2022-10-15T17:01:29;15.60;83.50
64468;DHT22;50853;46.836;16.820;2022-10-15T17:03:57;15.60;83.20
64468;DHT22;50853;46.836;16.820;2022-10-15T17:06:25;15.60;83.30
64468;DHT22;50853;46.836;16.820;2022-10-15T17:08:58;15.50;83.80
64468;DHT22;50853;46.836;16.820;2022-10-15T17:11:33;15.50;83.70
64468;DHT22;50853;46.836;16.820;2022-10-15T17:14:05;15.50;84.90
64468;DHT22;50853;46.836;16.820;2022-10-15T17:16:35;15.40;84.30
64468;DHT22;50853;46.836;16.820;2022-10-15T17:19:02;15.40;84.10
64468;DHT22;50853;46.836;16.820;2022-10-15T17:21:29;15.40;84.40
64468;DHT22;50853;46.836;16.820;2022-10-15T17:23:56;15.40;85.20
64468;DHT22;50853;46.836;16.820;2022-10-15T17:26:25;15.40;84.80
64468;DHT22;50853;46.836;16.820;2022-10-15T17:28:51;15.40;85.00
64468;DHT22;50853;46.836;16.820;2022-10-15T17:31:21;15.40;84.70
64468;DHT22;50853;46.836;16.820;2022-10-15T17:33:47;15.30;84.90
64468;DHT22;50853;46.836;16.820;2022-10-15T17:36:16;15.30;85.30
64468;DHT22;50853;46.836;16.820;2022-10-15T17:38:43;15.30;86.10
64468;DHT22;50853;46.836;16.820;2022-10-15T17:41:13;15.30;85.50
64468;DHT22;50853;46.836;16.820;2022-10-15T17:43:39;15.20;85.60
64468;DHT22;50853;46.836;16.820;2022-10-15T17:46:09;15.20;84.70
64468;DHT22;50853;46.836;16.820;2022-10-15T17:48:35;15.20;84.70
64468;DHT22;50853;46.836;16.820;2022-10-15T17:51:03;15.20;84.40
64468;DHT22;50853;46.836;16.820;2022-10-15T17:53:29;15.20;84.60
64468;DHT22;50853;46.836;16.820;2022-10-15T17:55:55;15.10;85.10
64468;DHT22;50853;46.836;16.820;2022-10-15T17:58:22;15.10;84.30